Bavaro, Dominican Republic
Current Conditions -  °F | °C
As of 2:00 AM on Saturday 20 Dec 2014 (Local Time) from MDPC Reporting Station
Scattered Clouds Scattered Clouds  
Wind Chill: 25°   Ceiling: Unl
Heat Index: 26°   Visibility: 6mi
Dew Point: 20°   Wind: 6mph
Humidity: 74%   Direction: 100°E
Pressure: 29.97"   Gusts: NA
Location:  18.72°N, 68.45°W
Report Text: MDPC 200600Z 10005KT 9999 SCT022 25/20 Q1015
Loading
Personal Weather Stations






























Interactive Weather Map New forecast layout! Learn more

10-Day Weather Forecast

Advertisements
Track Severe Weather on mobile